ETEB 220256Z AUTO 16005KT 4000 BR OVC002 M04/M04 A3054 RMK AO2 SLP391 T10401040 57015 $ EDMA 220250Z AUTO VRB02KT 4600 // OVC004/// M03/M04 Q1034 ETIK 220256Z AUTO 16004KT 9999 OVC006 M03/M03 A3057 RMK AO2 SLP375 T10271027 57016 EDDT 220250Z 26010KT 7000 BKN008 03/01 Q1031 LSZB 220250Z AUTO VRB01KT 4600 BR NSC M04/M04 Q1033 LIPB 212150Z VRB02KT CAVOK M03/M08 Q1040 RMK MON INVIS EDDW 220250Z 26007KT 9999 OVC007 04/03 Q1034 LFMD 220300Z AUTO 01004KT 340V060 CAVOK 06/03 Q1032 NOSIG EDLW 220250Z AUTO 17008KT 1800 1300 R24/1600N // BKN001/// BKN009/// M02/M02 Q1036 EDDC 220250Z 22007KT CAVOK M04/M05 Q1033 EDDL 220250Z VRB02KT 0100 R23R/0500N R23L/0650N FZFG BKN001 M03/M03 Q1037 NOSIG EDDE 220250Z 21009KT CAVOK M05/M06 Q1034 LIRQ 220250Z VRB01KT CAVOK 02/00 Q1036 EDDF 220250Z 09005KT CAVOK M05/M06 Q1036 NOSIG EDNY 220250Z 35003KT 4200 BR OVC004 M03/M04 Q1035 ETHF 220220Z 36001KT 0100 FZFG VV001 M06/M07 Q1036 RED LIMJ 220250Z 03019KT CAVOK 08/M07 Q1035 ETIC 220302Z AUTO 00000KT 1000 R14/1000VP1500 -FZDZ BR VV001 M04/M04 A3053 RMK AO2 FZDZE0256FZDZB02 SLP367 $ LOWG 220250Z AUTO VRB01KT 1800 0300N R17/0300N R35/P1500U FZBCFG FEW000 BKN001 M08/M08 Q1033 EDDH 220020Z 25008KT 220V280 6000 -DZ BKN006 05/04 Q1034 TEMPO 4000 EDDV 220250Z 26010KT 230V300 9999 BKN012 03/01 Q1034 ETIH 220256Z AUTO 00000KT 8000 BR OVC004 M03/M04 A3055 RMK AO2 SLP378 T10291045 57014 ETSI 220220Z AUTO VRB01KT 6000 // ////// M02/M04 Q1035 /// LOWI 220250Z AUTO VRB01KT 9999 NSC M07/M08 Q1035 LOWK 220250Z AUTO 31004KT 9999 FEW210 M06/M08 Q1036 EDDK 220250Z VRB01KT 9999 BKN008 M04/M05 Q1037 BECMG 0500 FZFG OVC001 EDDP 220250Z 24007KT CAVOK M04/M05 Q1034 NOSIG LOWL 220250Z AUTO 26003KT 200V320 4800 BR BKN004 M02/M02 Q1035 LSZA 220250Z AUTO VRB01KT 9999 NCD M03/M05 Q1037 LIML 220250Z VRB02KT CAVOK M01/M02 Q1037 NOSIG LFML 220300Z AUTO 08020KT CAVOK 13/04 Q1028 TEMPO 08025G40KT LFMT 220300Z AUTO 02015KT 9999 ///TCU 07/01 Q1028 TEMPO RA OVC020 EDLN 220250Z AUTO VRB02KT 0400 R13/0500N // VV002 M02/M03 Q1037 EDDM 220250Z 16003KT 110V220 3000 BR OVC003 M03/M04 Q1034 NOSIG EDDG 220250Z 19003KT 140V240 1500 BR OVC001 00/00 Q1036 TEMPO 0700 FG ETSN 220220Z 30001KT 7000 OVC006 M02/M04 Q1035 YLO ETHN 220220Z 14004KT 1200 BR OVC000 M04/M04 Q1034 RED LFMN 220300Z 32010KT CAVOK 08/M00 Q1032 NOSIG EDDN 220250Z 19003KT 160V230 4800 BR OVC004 M02/M03 Q1035 EDMO 220250Z AUTO 17003KT 130V240 0700 R22/0800N // VV002 M04/M04 Q1033 EDLP 220250Z 23008KT 9999 FEW013 M01/M03 Q1035 LIPR 220250Z AUTO 19002KT 5000 BR NCD 01/M01 Q1037 EDDR 220250Z VRB02KT CAVOK M04/M04 Q1034 LOWS 220250Z AUTO VRB02KT 4500 BR FEW002 BKN003 M03/M04 Q1035 LSGS 220250Z AUTO 26003KT 9999 NCD M01/M04 Q1033 EDDS 220250Z 16002KT 9000 NSC M05/M06 Q1034 LFTH 220300Z AUTO 07011KT 9999 -RA ///TCU 12/07 Q1030 BECMG 08020G30KT NSC LIMF 220250Z 25003KT CAVOK 00/M05 Q1036 LIPZ 220250Z 32001KT CAVOK 01/M02 Q1036 NOSIG LIPX 220220Z 23003KT CAVOK 01/M03 Q1037 LOWW 220250Z VRB02KT 6000 FEW002 BKN006 M01/M02 Q1035 R88/19//95 TEMPO 3000 BR BKN002 LSZH 220250Z VRB02KT 5000 FEW003 M06/M07 Q1034 NOSIG

METAR Messwerte

Klicken Sie auf einen Ort, um die 36h-Historie abzurufen

Ort
m ü. NN
Zeit Temperatur Taupunkt Rel.
Luftfeuchte
Luftdruck:
Altimeter
NN
Station
Wind in Beaufort
(Knoten)
Sichtweite
(Meter)
Wolken
(Meter über Grund)
Wettererscheinung
Ansbach
467
Mi 22.01. 03:56-4-4100 %1034
1038
978
SSO 2 (5)4000Bedeckt (61)Nebeldunst
Augsburg
463
Mi 22.01. 03:50-3-493 %1034
1038
979
Uml 1 (2)4600Bedeckt (120) 
Bad Windsheim / Illesheim
325
Mi 22.01. 03:56-3-3100 %1035
1038
996
SSO 2 (4)>= 10000Bedeckt (180) 
Berlin-Tegel
37
Mi 22.01. 03:503187 %1031
1031
1027
W 3 (10)7000Stark bewölkt (240) 
Bern/Belp
505
Mi 22.01. 03:50-4-4100 %1033
1038
973
Uml 1 (1)4600Nicht signifikantNebeldunst
Bozen
241
Di 21.01. 22:50-3-868 %1040
1042
1011
Uml 1 (2)>= 10000Nicht signifikant 
Bremen
5
Mi 22.01. 03:504393 %1034
1034
1033
W 3 (7)>= 10000Bedeckt (210) 
Cannes
9
Mi 22.01. 04:006381 %1032
1032
1031
N 2 (4)
NNW - ONO
>= 10000Nicht signifikant 
Dortmund/Wickede
127
Mi 22.01. 03:50-2-2100 %1036
1037
1021
S 3 (8)1800Stark bewölkt (270)
Stark bewölkt (30)
 
Dresden-Klotzsche
226
Mi 22.01. 03:50-4-593 %1033
1035
1006
SW 3 (7)>= 10000Nicht signifikant 
Düsseldorf
44
Mi 22.01. 03:50-3-3100 %1037
1037
1032
Uml 1 (2)100Stark bewölkt (30)Nebel
Erfurt-Bindersleben
323
Mi 22.01. 03:50-5-693 %1034
1037
995
SSW 3 (9)>= 10000Nicht signifikant 
Florenz
38
Mi 22.01. 03:502087 %1036
1036
1031
Uml 1 (1)>= 10000Nicht signifikant 
Frankfurt
113
Mi 22.01. 03:50-5-693 %1036
1037
1022
O 2 (5)>= 10000Nicht signifikant 
Friedrichshafen
424
Mi 22.01. 03:50-3-493 %1035
1039
984
N 2 (3)4200Bedeckt (120)Nebeldunst
Fritzlar
181
Mi 22.01. 03:20-6-793 %1036
1038
1014
N 1 (1)100 Nebel
Genua
3
Mi 22.01. 03:508-734 %1035
1035
1035
NNO 5 (19)>= 10000Nicht signifikant 
Grafenwöhr
415
Mi 22.01. 04:02-4-4100 %1034
1038
984
Windstill1000 Nieselregen (gefrierend, schwach)
Nebeldunst
Graz-Thalerhof
347
Mi 22.01. 03:50-8-8100 %1033
1037
991
Uml 1 (1)1800Stark bewölkt (30)
Leicht bewölkt (0)
 
Hamburg-Fuhlsbüttel
16
Mi 22.01. 01:205493 %1034
1034
1032
WSW 3 (8)
SW - W
6000Stark bewölkt (180)Nieselregen (schwach)
Hannover
54
Mi 22.01. 03:503187 %1034
1034
1027
W 3 (10)
SW - WNW
>= 10000Stark bewölkt (370) 
Hohenfels
442
Mi 22.01. 03:56-3-493 %1035
1039
982
Windstill8000Bedeckt (120)Nebeldunst
Ingolstadt
370
Mi 22.01. 03:20-2-486 %1035
1038
991
Uml 1 (1)6000  
Innsbruck
581
Mi 22.01. 03:50-7-893 %1035
1041
966
Uml 1 (1)>= 10000Nicht signifikant 
Klagenfurt
441
Mi 22.01. 03:50-6-886 %1036
1041
983
NW 2 (4)>= 10000Leicht bewölkt (6400) 
Köln/Bonn
99
Mi 22.01. 03:50-4-593 %1037
1038
1025
Uml 1 (1)>= 10000Stark bewölkt (240) Bald Übergang zu: Nebel
Leipzig-Schkeuditz
149
Mi 22.01. 03:50-4-593 %1034
1035
1016
WSW 3 (7)>= 10000Nicht signifikant 
Linz/Hörsching
313
Mi 22.01. 03:50-2-2100 %1035
1038
997
W 2 (3)
SSW - NW
4800Stark bewölkt (120)Nebeldunst
Lugano
276
Mi 22.01. 03:50-3-586 %1037
1039
1004
Uml 1 (1)>= 10000  
Mailand
103
Mi 22.01. 03:50-1-293 %1037
1038
1024
Uml 1 (2)>= 10000Nicht signifikant 
Marseille/Marignane
36
Mi 22.01. 04:0013454 %1028
1028
1024
O 5 (20)
Bald möglich:
O 6 (25) - 8 (40)
>= 10000Nicht signifikant 
Montpellier
6
Mi 22.01. 04:007166 %1028
1028
1027
NNO 4 (15)>= 10000  Bald möglich: Regen
Mönchengladbach
38
Mi 22.01. 03:50-2-393 %1037
1037
1032
Uml 1 (2)400  
München
447
Mi 22.01. 03:50-3-493 %1034
1038
981
SSO 2 (3)
OSO - SW
3000Bedeckt (91)Nebeldunst
Münster/Osnabrück
52
Mi 22.01. 03:5000100 %1036
1036
1030
S 2 (3)
SO - WSW
1500Bedeckt (30)Nebeldunst
Bald möglich: Nebel
Neuburg/Donau
387
Mi 22.01. 03:20-2-486 %1035
1038
989
WNW 1 (1)7000Bedeckt (180) 
Niederstetten
473
Mi 22.01. 03:20-4-4100 %1034
1038
978
SO 2 (4)1200Bedeckt (0)Nebeldunst
Nizza
10
Mi 22.01. 04:008-057 %1032
1032
1031
NW 3 (10)>= 10000Nicht signifikant 
Nürnberg
312
Mi 22.01. 03:50-2-393 %1035
1038
997
S 2 (3)
SSO - SW
4800Bedeckt (120)Nebeldunst
Oberpfaffenhofen
600
Mi 22.01. 03:50-4-4100 %1033
1039
962
S 2 (3)
SO - WSW
700  
Paderborn/Lippstadt
213
Mi 22.01. 03:50-1-386 %1035
1037
1009
SW 3 (8)>= 10000Leicht bewölkt (400) 
Rimini
13
Mi 22.01. 03:501-186 %1037
1037
1035
S 1 (2)5000 Nebeldunst
Saarbrücken/Ensheim
320
Mi 22.01. 03:50-4-4100 %1034
1037
996
Uml 1 (2)>= 10000Nicht signifikant 
Salzburg
450
Mi 22.01. 03:50-3-493 %1035
1039
981
Uml 1 (2)4500Stark bewölkt (91)
Leicht bewölkt (61)
Nebeldunst
Sion
481
Mi 22.01. 03:50-1-480 %1033
1037
976
W 2 (3)>= 10000  
Stuttgart
419
Mi 22.01. 03:50-5-693 %1034
1038
984
SSO 1 (2)9000Nicht signifikant 
Toulon
4
Mi 22.01. 04:0012771 %1030
1030
1030
ONO 4 (11)
Bald Übergang zu:
O 5 (20) - 7 (30)
>= 10000 Regen (schwach)
Turin
287
Mi 22.01. 03:500-569 %1036
1038
1001
WSW 2 (3)>= 10000Nicht signifikant 
Venedig
6
Mi 22.01. 03:501-280 %1036
1036
1035
NW 1 (1)>= 10000Nicht signifikant 
Verona/Villafranca
68
Mi 22.01. 03:201-375 %1037
1037
1029
SW 2 (3)>= 10000Nicht signifikant 
Wien/Schwechat
190
Mi 22.01. 03:50-1-293 %1035
1036
1012
Uml 1 (2)6000Stark bewölkt (180)
Leicht bewölkt (61)
 Bald möglich: Nebeldunst
Zürich-Kloten
432
Mi 22.01. 03:50-6-793 %1034
1038
982
Uml 1 (2)5000Leicht bewölkt (91) 

Altimeter: Einstellung am Altimeter (Höhenmesser), die Höhe 0 muss auf diesen Luftdruckwert zeigen, damit das Gerät die Stationshöhe richtig anzeigt.

NN: Luftdruck reduziert auf "Normal Null", auf Meereshöhe, dieser von der Temperatur abhängige Wert wird bisweilen unkorrekt einfach als "Luftdruck" bezeichnet. Eigentlich nur eine fiktive Größe, die es erlaubt, Stationen auf unterschiedlichen Höhen miteinander zu vergleichen.

Station: Realer Luftdruck an der Station.